createdAt,value
2022-12-06T00:01:34.934Z,66.59
2022-12-06T00:04:40.330Z,66.82
2022-12-06T00:07:46.185Z,66.69
2022-12-06T00:10:53.849Z,66.59
2022-12-06T00:14:03.438Z,66.43
2022-12-06T00:17:08.449Z,66.64
2022-12-06T00:20:15.098Z,66.59
2022-12-06T00:23:20.033Z,66.28
2022-12-06T00:26:29.703Z,66.81
2022-12-06T00:29:34.853Z,66.35
2022-12-06T00:32:40.908Z,67.23
2022-12-06T00:35:46.607Z,66.51
2022-12-06T00:38:53.830Z,67.53
2022-12-06T00:42:03.688Z,66.45
2022-12-06T00:45:12.004Z,66.90
2022-12-06T00:48:17.153Z,67.03
2022-12-06T00:51:26.143Z,66.62
2022-12-06T00:54:31.044Z,66.93
2022-12-06T00:57:39.532Z,66.93
2022-12-06T01:00:45.335Z,66.93
2022-12-06T01:03:55.564Z,66.59
2022-12-06T01:07:00.461Z,67.03
2022-12-06T01:10:09.812Z,67.01
2022-12-06T01:13:17.346Z,67.19
2022-12-06T01:16:28.800Z,66.66
2022-12-06T01:19:33.796Z,66.58
2022-12-06T01:22:39.714Z,66.74
2022-12-06T01:25:53.140Z,66.42
2022-12-06T01:29:03.690Z,66.47
2022-12-06T01:32:09.178Z,66.30
2022-12-06T01:35:15.011Z,66.37
2022-12-06T01:38:20.049Z,66.52
2022-12-06T01:41:29.189Z,66.72
2022-12-06T01:44:48.158Z,66.71
2022-12-06T01:47:54.382Z,67.04
2022-12-06T01:51:03.347Z,67.18
2022-12-06T01:54:16.064Z,67.24
2022-12-06T01:57:21.753Z,67.10
2022-12-06T02:00:30.765Z,67.82
2022-12-06T02:03:37.703Z,67.37
2022-12-06T02:06:44.865Z,67.32
2022-12-06T02:09:55.018Z,67.46
2022-12-06T02:13:03.364Z,67.93
2022-12-06T02:16:44.161Z,67.87
2022-12-06T02:20:22.005Z,67.82
2022-12-06T02:24:30.250Z,68.08
2022-12-06T02:28:12.393Z,67.54
2022-12-06T02:31:36.498Z,67.97
2022-12-06T02:34:54.383Z,68.01
2022-12-06T02:38:13.311Z,67.86
2022-12-06T02:41:29.248Z,68.18
2022-12-06T02:44:45.130Z,67.87
2022-12-06T02:48:00.987Z,67.94
2022-12-06T02:51:17.408Z,68.17
2022-12-06T02:54:27.490Z,67.41
2022-12-06T02:57:45.946Z,67.83
2022-12-06T03:00:58.878Z,67.61
2022-12-06T03:04:36.048Z,67.33
2022-12-06T03:07:48.715Z,67.67
2022-12-06T03:11:06.264Z,67.68
2022-12-06T03:14:22.507Z,67.72
2022-12-06T03:17:41.987Z,67.80
2022-12-06T03:20:57.960Z,68.78
2022-12-06T03:24:08.348Z,68.18
2022-12-06T03:27:20.976Z,68.45
2022-12-06T03:30:27.918Z,68.52
2022-12-06T03:33:37.845Z,68.45
2022-12-06T03:36:52.745Z,68.89
2022-12-06T03:40:10.185Z,68.13
2022-12-06T03:43:17.221Z,68.63
2022-12-06T03:46:30.901Z,68.45
2022-12-06T03:49:46.493Z,68.66
2022-12-06T03:52:56.026Z,67.53
2022-12-06T03:56:03.517Z,68.28
2022-12-06T03:59:11.163Z,67.60
2022-12-06T04:02:17.740Z,67.63
2022-12-06T04:05:23.693Z,68.03
2022-12-06T04:08:32.717Z,68.17
2022-12-06T04:11:38.719Z,67.92
2022-12-06T04:14:44.859Z,68.27
2022-12-06T04:18:06.767Z,67.95
2022-12-06T04:21:28.664Z,67.95
2022-12-06T04:24:37.063Z,67.88
2022-12-06T04:27:58.824Z,67.92
2022-12-06T04:31:22.775Z,67.92
2022-12-06T04:34:44.799Z,67.91
2022-12-06T04:38:05.915Z,67.98
2022-12-06T04:41:37.261Z,67.80
2022-12-06T04:44:40.308Z,67.90
2022-12-06T04:47:46.479Z,67.62
2022-12-06T04:50:52.905Z,67.71
2022-12-06T04:53:59.161Z,68.20
2022-12-06T04:57:11.200Z,68.52
2022-12-06T05:00:19.034Z,68.65
2022-12-06T05:03:25.042Z,68.23
2022-12-06T05:06:31.415Z,69.19
2022-12-06T05:09:36.789Z,68.81
2022-12-06T05:12:45.744Z,68.66
2022-12-06T05:15:56.201Z,68.84
2022-12-06T05:19:03.623Z,69.68
2022-12-06T05:22:08.959Z,69.66
2022-12-06T05:25:17.016Z,70.02
2022-12-06T05:28:25.553Z,70.63
2022-12-06T05:31:31.975Z,70.24
2022-12-06T05:34:37.305Z,69.31
2022-12-06T05:37:43.804Z,68.94
2022-12-06T05:40:50.036Z,69.64
2022-12-06T05:43:59.191Z,69.74
2022-12-06T05:47:06.339Z,69.09
2022-12-06T05:50:14.785Z,69.01
2022-12-06T05:53:21.303Z,69.19
2022-12-06T05:56:27.494Z,69.68
2022-12-06T05:59:36.901Z,69.21
2022-12-06T06:02:43.877Z,69.03
2022-12-06T06:05:52.599Z,69.05
2022-12-06T06:08:59.001Z,68.70
2022-12-06T06:12:12.121Z,68.61
2022-12-06T06:15:21.937Z,68.49
2022-12-06T06:18:27.871Z,68.31
2022-12-06T06:21:34.054Z,68.71
2022-12-06T06:24:41.099Z,68.07
2022-12-06T06:27:47.559Z,67.83
2022-12-06T06:30:55.730Z,67.94
2022-12-06T06:34:03.377Z,67.91
2022-12-06T06:37:10.652Z,67.89
2022-12-06T06:40:17.255Z,68.31
2022-12-06T06:43:22.607Z,68.00
2022-12-06T06:46:31.625Z,67.64
2022-12-06T06:49:37.107Z,67.80
2022-12-06T06:52:43.292Z,67.34
2022-12-06T06:55:50.518Z,67.25
2022-12-06T06:58:56.727Z,66.93
2022-12-06T07:02:06.345Z,67.45
2022-12-06T07:05:13.015Z,67.81
2022-12-06T07:08:18.681Z,67.46
2022-12-06T07:11:25.160Z,67.20
2022-12-06T07:14:30.488Z,67.59
2022-12-06T07:17:39.487Z,67.51
2022-12-06T07:20:44.837Z,67.60
2022-12-06T07:23:51.323Z,67.58
2022-12-06T07:26:57.563Z,67.89
2022-12-06T07:30:03.969Z,67.63
2022-12-06T07:33:12.185Z,66.98
2022-12-06T07:36:20.312Z,67.49
2022-12-06T07:39:26.832Z,67.31
2022-12-06T07:42:48.835Z,67.05
2022-12-06T07:45:54.506Z,66.98
2022-12-06T07:49:04.470Z,67.17
2022-12-06T07:52:11.653Z,67.12
2022-12-06T07:55:21.504Z,67.12
2022-12-06T07:58:26.877Z,67.07
2022-12-06T08:01:33.286Z,67.65
2022-12-06T08:04:41.930Z,67.10
2022-12-06T08:07:48.261Z,66.98
2022-12-06T08:10:54.163Z,66.88
2022-12-06T08:14:00.430Z,67.34
2022-12-06T08:17:09.548Z,66.80
2022-12-06T08:20:20.143Z,66.69
2022-12-06T08:23:30.686Z,66.97
2022-12-06T08:26:40.195Z,66.89
2022-12-06T08:29:49.334Z,67.08
2022-12-06T08:33:07.421Z,67.54
2022-12-06T08:36:19.862Z,67.47
2022-12-06T08:39:29.064Z,67.47
2022-12-06T08:42:34.399Z,67.53
2022-12-06T08:45:40.856Z,67.44
2022-12-06T08:48:46.761Z,67.13
2022-12-06T08:51:56.619Z,67.02
2022-12-06T08:55:04.392Z,67.18
2022-12-06T08:58:11.229Z,67.00
2022-12-06T09:01:20.290Z,67.03
2022-12-06T09:04:28.159Z,66.91
2022-12-06T09:07:36.678Z,67.02
2022-12-06T09:10:42.975Z,67.13
2022-12-06T09:13:48.784Z,67.06
2022-12-06T09:16:55.564Z,67.19
2022-12-06T09:20:05.580Z,67.14
2022-12-06T09:23:15.353Z,67.17
2022-12-06T09:26:20.988Z,66.93
2022-12-06T09:29:27.645Z,66.99
2022-12-06T09:32:34.912Z,66.67
2022-12-06T09:35:41.482Z,67.34
2022-12-06T09:38:58.435Z,67.34
2022-12-06T09:42:49.460Z,67.46
2022-12-06T09:46:22.526Z,67.19
2022-12-06T09:49:39.242Z,66.40
2022-12-06T09:53:18.786Z,67.02
2022-12-06T09:56:39.459Z,66.72
2022-12-06T10:00:06.344Z,66.37
2022-12-06T10:04:17.361Z,66.25
2022-12-06T10:07:37.578Z,66.64
2022-12-06T10:11:08.160Z,67.41
2022-12-06T10:14:49.168Z,68.48
2022-12-06T10:18:29.788Z,68.73
2022-12-06T10:21:54.632Z,68.66
2022-12-06T10:25:11.088Z,69.75
2022-12-06T10:28:25.451Z,69.01
2022-12-06T10:31:58.483Z,69.60
2022-12-06T10:35:23.466Z,69.27
2022-12-06T10:38:43.232Z,68.78
2022-12-06T10:42:03.644Z,68.87
2022-12-06T10:45:42.364Z,68.32
2022-12-06T10:49:07.247Z,68.95
2022-12-06T10:52:30.105Z,69.64
2022-12-06T10:55:50.801Z,69.51
2022-12-06T10:59:08.529Z,70.66
2022-12-06T11:02:38.168Z,73.85
2022-12-06T11:05:57.690Z,74.07
2022-12-06T11:09:17.110Z,73.48
2022-12-06T11:12:32.124Z,72.29
2022-12-06T11:15:44.203Z,70.41
2022-12-06T11:18:52.363Z,70.81
2022-12-06T11:22:15.509Z,68.84
2022-12-06T11:25:33.496Z,70.40
2022-12-06T11:28:44.213Z,70.39
2022-12-06T11:31:56.900Z,70.06
2022-12-06T11:35:07.140Z,70.68
2022-12-06T11:38:20.532Z,70.05
2022-12-06T11:41:31.815Z,70.91
2022-12-06T11:44:49.942Z,70.78
2022-12-06T11:47:58.044Z,70.85
2022-12-06T11:51:06.595Z,69.71
2022-12-06T11:54:29.463Z,70.69
2022-12-06T11:57:47.598Z,69.71
2022-12-06T12:01:10.032Z,68.90
2022-12-06T12:04:36.595Z,69.45
2022-12-06T12:07:45.796Z,70.62
2022-12-06T12:11:04.652Z,69.33
2022-12-06T12:14:21.474Z,70.56
2022-12-06T12:17:35.132Z,70.98
2022-12-06T12:20:49.494Z,71.77
2022-12-06T12:23:55.894Z,70.08
2022-12-06T12:27:04.190Z,71.01
2022-12-06T12:30:31.663Z,71.21
2022-12-06T12:33:37.205Z,70.80
2022-12-06T12:36:52.915Z,71.67
2022-12-06T12:39:58.483Z,70.92
2022-12-06T12:43:18.667Z,70.86
2022-12-06T12:46:25.834Z,69.20
2022-12-06T12:49:38.704Z,69.35
2022-12-06T12:52:46.032Z,69.35
2022-12-06T12:56:11.056Z,70.26
2022-12-06T12:59:24.239Z,69.60
2022-12-06T13:02:34.972Z,70.02
2022-12-06T13:05:46.887Z,69.54
2022-12-06T13:08:54.981Z,70.45
2022-12-06T13:12:07.617Z,70.16
2022-12-06T13:15:29.086Z,70.43
2022-12-06T13:18:44.294Z,69.64
2022-12-06T13:21:54.584Z,69.90
2022-12-06T13:25:09.255Z,69.98
2022-12-06T13:28:25.661Z,70.21
2022-12-06T13:31:41.232Z,70.27
2022-12-06T13:34:56.635Z,70.03
2022-12-06T13:38:07.392Z,70.44
2022-12-06T13:41:37.879Z,70.55
2022-12-06T13:44:45.763Z,71.37
2022-12-06T13:47:56.144Z,71.66
2022-12-06T13:51:06.704Z,71.21
2022-12-06T13:54:42.836Z,70.01
2022-12-06T13:57:48.476Z,70.21
2022-12-06T14:00:57.689Z,71.02
2022-12-06T14:04:08.919Z,70.54
2022-12-06T14:10:20.707Z,70.47
2022-12-06T14:13:27.478Z,70.78
2022-12-06T14:16:41.546Z,70.27
2022-12-06T14:19:53.322Z,69.59
2022-12-06T14:22:59.526Z,69.39
2022-12-06T14:26:27.977Z,69.38
2022-12-06T14:29:33.523Z,69.72
2022-12-06T14:32:44.212Z,70.35
2022-12-06T14:35:58.525Z,70.05
2022-12-06T14:39:19.046Z,70.17
2022-12-06T14:42:40.695Z,69.94
2022-12-06T14:45:52.870Z,70.08
2022-12-06T14:49:13.897Z,70.60
2022-12-06T14:52:28.239Z,71.04
2022-12-06T14:55:37.341Z,70.38
2022-12-06T14:58:46.535Z,70.70
2022-12-06T15:01:56.726Z,70.77
2022-12-06T15:05:03.617Z,71.25
2022-12-06T15:08:38.981Z,71.30
2022-12-06T15:12:03.593Z,71.65
2022-12-06T15:15:24.576Z,71.62
2022-12-06T15:18:36.885Z,71.01
2022-12-06T15:21:42.598Z,71.09
2022-12-06T15:24:54.845Z,72.23
2022-12-06T15:28:00.322Z,72.66
2022-12-06T15:31:16.539Z,72.10
2022-12-06T15:34:30.104Z,72.30
2022-12-06T15:37:39.065Z,71.97
2022-12-06T15:40:51.184Z,70.84
2022-12-06T15:43:59.264Z,71.30
2022-12-06T15:47:06.631Z,71.49
2022-12-06T15:50:19.676Z,72.08
2022-12-06T15:53:28.470Z,71.65
2022-12-06T15:56:37.443Z,72.24
2022-12-06T15:59:43.003Z,72.05
2022-12-06T16:02:49.728Z,71.15
2022-12-06T16:05:55.280Z,71.27
2022-12-06T16:09:03.363Z,71.57
2022-12-06T16:12:13.976Z,72.20
2022-12-06T16:15:20.444Z,71.89
2022-12-06T16:18:25.991Z,71.68
2022-12-06T16:21:35.294Z,71.73
2022-12-06T16:24:41.015Z,71.61
2022-12-06T16:27:49.955Z,71.59
2022-12-06T16:30:55.652Z,72.34
2022-12-06T16:34:03.768Z,71.90
2022-12-06T16:37:09.929Z,72.28
2022-12-06T16:40:24.563Z,71.64
2022-12-06T16:43:36.827Z,72.51
2022-12-06T16:46:45.783Z,71.87
2022-12-06T16:49:51.311Z,72.20
2022-12-06T16:52:58.141Z,72.67
2022-12-06T16:56:03.531Z,72.38
2022-12-06T16:59:18.587Z,72.83
2022-12-06T17:02:31.997Z,73.53
2022-12-06T17:05:38.238Z,73.20
2022-12-06T17:08:43.676Z,73.23
2022-12-06T17:12:12.822Z,72.64
2022-12-06T17:15:24.147Z,72.51
2022-12-06T17:18:30.345Z,72.94
2022-12-06T17:21:36.701Z,72.41
2022-12-06T17:24:44.056Z,72.10
2022-12-06T17:27:49.755Z,72.12
2022-12-06T17:30:58.883Z,72.46
2022-12-06T17:34:10.420Z,72.21
2022-12-06T17:37:17.024Z,71.78
2022-12-06T17:40:22.519Z,72.17
2022-12-06T17:43:26.096Z,72.63
2022-12-06T17:46:34.703Z,72.13
2022-12-06T17:49:41.377Z,72.62
2022-12-06T17:52:47.133Z,72.53
2022-12-06T17:55:53.319Z,72.71
2022-12-06T17:59:03.618Z,72.62
2022-12-06T18:02:18.727Z,72.44
2022-12-06T18:05:24.516Z,71.77
2022-12-06T18:08:30.768Z,71.47
2022-12-06T18:11:38.837Z,70.66
2022-12-06T18:14:45.416Z,70.62
2022-12-06T18:17:55.347Z,70.88
2022-12-06T18:21:03.403Z,70.91
2022-12-06T18:24:21.561Z,71.64
2022-12-06T18:27:29.176Z,71.73
2022-12-06T18:30:34.635Z,71.80
2022-12-06T18:33:43.610Z,72.40
2022-12-06T18:36:49.695Z,72.84
2022-12-06T18:39:55.936Z,72.84
2022-12-06T18:43:03.447Z,73.02
2022-12-06T18:46:15.282Z,73.35
2022-12-06T18:49:23.793Z,73.51
2022-12-06T18:52:30.850Z,73.09
2022-12-06T18:55:36.516Z,73.58
2022-12-06T18:58:44.864Z,73.54
2022-12-06T19:01:50.580Z,73.60
2022-12-06T19:05:00.134Z,74.59
2022-12-06T19:08:08.392Z,74.52
2022-12-06T19:11:20.659Z,73.91
2022-12-06T19:14:26.585Z,74.39
2022-12-06T19:17:32.817Z,73.76
2022-12-06T19:20:41.911Z,73.80
2022-12-06T19:23:51.714Z,74.08
2022-12-06T19:26:59.348Z,74.33
2022-12-06T19:30:09.123Z,74.13
2022-12-06T19:33:14.611Z,74.27
2022-12-06T19:36:43.517Z,74.15
2022-12-06T19:39:48.975Z,74.42
2022-12-06T19:43:10.683Z,74.26
2022-12-06T19:46:21.479Z,74.69
2022-12-06T19:49:29.946Z,74.63
2022-12-06T19:52:38.188Z,74.89
2022-12-06T19:55:48.957Z,74.54
2022-12-06T19:58:54.812Z,74.40
2022-12-06T20:02:03.410Z,74.69
2022-12-06T20:05:11.053Z,74.55
2022-12-06T20:08:20.123Z,74.96
2022-12-06T20:11:43.703Z,75.00
2022-12-06T20:14:52.431Z,74.91
2022-12-06T20:17:57.775Z,75.31
2022-12-06T20:21:03.939Z,74.45
2022-12-06T20:24:13.455Z,74.76
2022-12-06T20:27:39.985Z,74.74
2022-12-06T20:30:45.720Z,75.32
2022-12-06T20:33:52.898Z,74.79
2022-12-06T20:36:58.429Z,74.88
2022-12-06T20:40:09.707Z,75.15
2022-12-06T20:43:15.048Z,74.93
2022-12-06T20:46:27.153Z,74.97
2022-12-06T20:49:32.858Z,75.30
2022-12-06T20:52:39.136Z,75.19
2022-12-06T20:55:47.347Z,75.49
2022-12-06T20:58:57.478Z,75.14
2022-12-06T21:02:03.857Z,74.42
2022-12-06T21:05:11.279Z,74.48
2022-12-06T21:08:16.949Z,74.13
2022-12-06T21:11:28.475Z,74.09
2022-12-06T21:14:34.051Z,73.81
2022-12-06T21:17:40.319Z,74.06
2022-12-06T21:20:46.165Z,73.64
2022-12-06T21:23:53.084Z,73.44
2022-12-06T21:27:01.190Z,73.56
2022-12-06T21:30:10.050Z,73.83
2022-12-06T21:33:15.375Z,73.33
2022-12-06T21:36:21.556Z,73.86
2022-12-06T21:39:27.195Z,74.11
2022-12-06T21:42:36.304Z,73.79
2022-12-06T21:45:44.243Z,73.98
2022-12-06T21:48:54.237Z,74.00
2022-12-06T21:52:05.859Z,73.92
2022-12-06T21:55:15.202Z,73.86
2022-12-06T21:58:23.484Z,73.78
2022-12-06T22:01:31.228Z,73.97
2022-12-06T22:04:36.982Z,74.02
2022-12-06T22:07:43.616Z,73.64
2022-12-06T22:10:52.706Z,73.46
2022-12-06T22:14:04.998Z,73.65
2022-12-06T22:17:10.387Z,73.49
2022-12-06T22:20:16.599Z,73.54
2022-12-06T22:23:21.941Z,73.42
2022-12-06T22:26:30.599Z,73.33
2022-12-06T22:29:39.485Z,73.14
2022-12-06T22:32:45.725Z,73.52
2022-12-06T22:35:51.059Z,73.38
2022-12-06T22:39:00.841Z,73.53
2022-12-06T22:42:08.256Z,73.71
2022-12-06T22:45:17.705Z,73.83
2022-12-06T22:48:23.243Z,73.48
2022-12-06T22:51:32.081Z,73.92
2022-12-06T22:54:37.652Z,73.29
2022-12-06T22:57:43.856Z,73.04
2022-12-06T23:00:52.049Z,73.37
2022-12-06T23:03:59.065Z,73.15
2022-12-06T23:07:09.061Z,73.29
2022-12-06T23:10:15.450Z,73.49
2022-12-06T23:13:20.857Z,73.48
2022-12-06T23:16:32.984Z,73.47
2022-12-06T23:19:38.431Z,73.63
2022-12-06T23:22:44.714Z,73.55
2022-12-06T23:25:50.267Z,73.51
2022-12-06T23:28:57.611Z,73.36
2022-12-06T23:32:07.305Z,73.22
2022-12-06T23:35:15.468Z,73.42
2022-12-06T23:38:20.823Z,73.62
2022-12-06T23:41:30.635Z,73.60
2022-12-06T23:44:37.289Z,73.60
2022-12-06T23:47:46.483Z,74.09
2022-12-06T23:50:52.222Z,73.79
2022-12-06T23:54:03.440Z,73.70
2022-12-06T23:57:09.072Z,73.34
